createdAt,value
2023-04-06T00:01:40.842Z,3.30
2023-04-06T00:04:09.594Z,3.27
2023-04-06T00:06:38.096Z,3.53
2023-04-06T00:09:09.713Z,3.30
2023-04-06T00:11:39.634Z,3.30
2023-04-06T00:14:09.142Z,3.30
2023-04-06T00:16:37.592Z,3.87
2023-04-06T00:19:10.845Z,3.40
2023-04-06T00:21:39.566Z,2.90
2023-04-06T00:24:08.368Z,3.37
2023-04-06T00:26:38.149Z,2.87
2023-04-06T00:29:09.661Z,3.43
2023-04-06T00:31:38.219Z,3.57
2023-04-06T00:34:07.463Z,3.60
2023-04-06T00:36:38.689Z,3.53
2023-04-06T00:39:10.309Z,3.70
2023-04-06T00:41:41.562Z,4.10
2023-04-06T00:44:10.014Z,4.47
2023-04-06T00:46:38.380Z,3.73
2023-04-06T00:49:07.088Z,3.97
2023-04-06T00:51:35.708Z,3.20
2023-04-06T00:54:04.205Z,3.70
2023-04-06T00:56:32.979Z,3.53
2023-04-06T00:59:02.978Z,3.13
2023-04-06T01:01:33.468Z,4.50
2023-04-06T01:04:07.513Z,4.97
2023-04-06T01:06:35.939Z,4.83
2023-04-06T01:09:04.547Z,5.03
2023-04-06T01:11:33.367Z,4.77
2023-04-06T01:14:03.152Z,4.57
2023-04-06T01:16:31.678Z,3.97
2023-04-06T01:19:01.719Z,4.10
2023-04-06T01:21:30.162Z,3.90
2023-04-06T01:23:59.970Z,4.33
2023-04-06T01:26:30.314Z,3.23
2023-04-06T01:29:01.687Z,3.70
2023-04-06T01:31:30.510Z,5.13
2023-04-06T01:34:01.900Z,6.20
2023-04-06T01:36:30.705Z,4.47
2023-04-06T01:39:00.806Z,4.60
2023-04-06T01:41:29.281Z,4.10
2023-04-06T01:43:57.695Z,3.73
2023-04-06T01:46:26.191Z,4.00
2023-04-06T01:48:54.619Z,4.53
2023-04-06T01:51:23.019Z,4.30
2023-04-06T01:53:51.436Z,3.90
2023-04-06T01:56:21.341Z,4.10
2023-04-06T01:58:49.804Z,3.37
2023-04-06T02:01:18.303Z,3.73
2023-04-06T02:03:46.841Z,3.57
2023-04-06T02:06:15.365Z,4.40
2023-04-06T02:08:46.421Z,3.67
2023-04-06T02:11:17.746Z,3.67
2023-04-06T02:13:47.540Z,3.80
2023-04-06T02:16:16.908Z,3.90
2023-04-06T02:18:45.480Z,3.77
2023-04-06T02:21:13.891Z,3.43
2023-04-06T02:23:42.284Z,4.07
2023-04-06T02:26:10.719Z,4.33
2023-04-06T02:28:39.160Z,3.77
2023-04-06T02:31:08.999Z,3.63
2023-04-06T02:33:37.394Z,3.37
2023-04-06T02:36:06.482Z,3.73
2023-04-06T02:38:35.017Z,4.20
2023-04-06T02:41:03.435Z,3.80
2023-04-06T02:43:34.644Z,3.47
2023-04-06T02:46:05.358Z,4.00
2023-04-06T02:48:37.234Z,4.20
2023-04-06T02:51:06.244Z,3.73
2023-04-06T02:53:34.757Z,4.00
2023-04-06T02:56:05.819Z,4.30
2023-04-06T02:58:37.920Z,3.80
2023-04-06T03:01:06.692Z,3.70
2023-04-06T03:03:36.659Z,3.83
2023-04-06T03:06:08.420Z,3.67
2023-04-06T03:08:36.896Z,4.37
2023-04-06T03:11:05.547Z,4.10
2023-04-06T03:13:34.011Z,4.07
2023-04-06T03:16:02.611Z,4.23
2023-04-06T03:18:31.062Z,3.80
2023-04-06T03:21:01.378Z,3.90
2023-04-06T03:23:29.843Z,4.50
2023-04-06T03:26:01.349Z,4.13
2023-04-06T03:28:29.826Z,5.20
2023-04-06T03:30:58.293Z,4.93
2023-04-06T03:33:28.030Z,5.33
2023-04-06T03:35:56.684Z,5.03
2023-04-06T03:38:26.515Z,5.30
2023-04-06T03:40:54.917Z,4.97
2023-04-06T03:43:23.349Z,5.30
2023-04-06T03:45:51.994Z,5.00
2023-04-06T03:48:20.398Z,5.23
2023-04-06T03:50:48.774Z,4.60
2023-04-06T03:53:17.245Z,4.97
2023-04-06T03:55:47.026Z,5.00
2023-04-06T03:58:15.685Z,5.40
2023-04-06T04:00:44.077Z,5.10
2023-04-06T04:03:14.724Z,5.20
2023-04-06T04:05:43.260Z,5.70
2023-04-06T04:08:11.770Z,5.50
2023-04-06T04:10:40.318Z,5.17
2023-04-06T04:13:10.302Z,4.47
2023-04-06T04:15:38.704Z,4.57
2023-04-06T04:18:07.169Z,4.73
2023-04-06T04:20:35.733Z,4.87
2023-04-06T04:23:04.114Z,5.13
2023-04-06T04:25:32.521Z,4.13
2023-04-06T04:28:00.936Z,4.73
2023-04-06T04:30:30.815Z,5.20
2023-04-06T04:32:59.495Z,5.03
2023-04-06T04:35:29.161Z,5.10
2023-04-06T04:37:57.605Z,4.63
2023-04-06T04:40:26.130Z,4.70
2023-04-06T04:42:54.606Z,5.23
2023-04-06T04:45:23.087Z,5.00
2023-04-06T04:47:52.990Z,4.97
2023-04-06T04:50:21.420Z,4.67
2023-04-06T04:52:49.870Z,4.80
2023-04-06T04:55:18.610Z,5.83
2023-04-06T04:57:47.062Z,4.60
2023-04-06T05:00:16.757Z,4.63
2023-04-06T05:02:45.254Z,4.43
2023-04-06T05:05:15.124Z,5.20
2023-04-06T05:07:43.637Z,5.20
2023-04-06T05:10:12.642Z,5.47
2023-04-06T05:12:41.326Z,5.47
2023-04-06T05:15:11.340Z,4.93
2023-04-06T05:17:39.944Z,6.10
2023-04-06T05:20:09.695Z,5.70
2023-04-06T05:22:39.779Z,4.97
2023-04-06T05:25:09.440Z,5.57
2023-04-06T05:27:37.919Z,5.10
2023-04-06T05:30:08.248Z,4.70
2023-04-06T05:32:37.095Z,4.90
2023-04-06T05:35:06.249Z,4.43
2023-04-06T05:37:34.677Z,4.60
2023-04-06T05:40:05.552Z,4.67
2023-04-06T05:42:39.382Z,4.90
2023-04-06T05:45:09.420Z,5.20
2023-04-06T05:47:37.971Z,5.03
2023-04-06T05:50:10.687Z,6.20
2023-04-06T05:52:39.115Z,6.37
2023-04-06T05:55:10.748Z,6.70
2023-04-06T05:57:39.219Z,5.60
2023-04-06T06:00:10.870Z,5.03
2023-04-06T06:02:40.637Z,4.70
2023-04-06T06:05:10.731Z,5.23
2023-04-06T06:07:39.418Z,6.53
2023-04-06T06:10:11.414Z,6.40
2023-04-06T06:12:39.853Z,7.03
2023-04-06T06:15:09.972Z,5.57
2023-04-06T06:17:39.202Z,5.60
2023-04-06T06:20:09.749Z,4.73
2023-04-06T06:22:38.324Z,5.73
2023-04-06T06:25:08.639Z,4.90
2023-04-06T06:27:37.589Z,4.80
2023-04-06T06:30:07.620Z,4.93
2023-04-06T06:32:36.156Z,5.03
2023-04-06T06:35:04.893Z,5.73
2023-04-06T06:37:33.295Z,5.17
2023-04-06T06:40:01.811Z,4.73
2023-04-06T06:42:31.607Z,4.90
2023-04-06T06:45:05.284Z,5.73
2023-04-06T06:47:33.790Z,5.53
2023-04-06T06:50:03.869Z,4.80
2023-04-06T06:52:32.354Z,5.33
2023-04-06T06:55:01.252Z,4.87
2023-04-06T06:57:31.112Z,5.43
2023-04-06T07:00:00.997Z,5.10
2023-04-06T07:02:29.495Z,5.43
2023-04-06T07:04:58.035Z,5.13
2023-04-06T07:07:26.455Z,5.63
2023-04-06T07:09:54.897Z,5.13
2023-04-06T07:12:23.391Z,5.77
2023-04-06T07:14:53.218Z,5.70
2023-04-06T07:17:21.695Z,5.30
2023-04-06T07:19:50.161Z,6.07
2023-04-06T07:22:18.652Z,5.90
2023-04-06T07:24:47.105Z,6.20
2023-04-06T07:27:17.382Z,5.80
2023-04-06T07:29:45.899Z,6.17
2023-04-06T07:32:15.915Z,5.93
2023-04-06T07:34:46.123Z,6.43
2023-04-06T07:37:14.626Z,5.87
2023-04-06T07:39:43.322Z,5.90
2023-04-06T07:42:12.400Z,5.57
2023-04-06T07:44:40.936Z,5.93
2023-04-06T07:47:09.376Z,6.33
2023-04-06T07:49:39.219Z,5.83
2023-04-06T07:52:07.724Z,6.03
2023-04-06T07:54:36.249Z,6.30
2023-04-06T07:57:04.731Z,5.63
2023-04-06T07:59:33.247Z,6.17
2023-04-06T08:02:01.914Z,6.63
2023-04-06T08:04:30.677Z,6.30
2023-04-06T08:07:00.739Z,6.17
2023-04-06T08:09:29.172Z,5.73
2023-04-06T08:11:57.580Z,5.43
2023-04-06T08:14:26.083Z,6.30
2023-04-06T08:16:54.491Z,5.53
2023-04-06T08:19:23.131Z,5.57
2023-04-06T08:21:52.386Z,6.37
2023-04-06T08:24:22.281Z,5.60
2023-04-06T08:26:51.676Z,5.00
2023-04-06T08:29:20.358Z,5.37
2023-04-06T08:31:48.810Z,5.13
2023-04-06T08:34:17.437Z,5.40
2023-04-06T08:36:46.577Z,5.10
2023-04-06T08:39:15.085Z,5.10
2023-04-06T08:41:46.013Z,5.43
2023-04-06T08:44:14.706Z,5.70
2023-04-06T08:46:43.221Z,5.37
2023-04-06T08:49:11.750Z,4.87
2023-04-06T08:51:40.461Z,4.87
2023-04-06T08:54:09.065Z,4.63
2023-04-06T08:56:41.297Z,4.23
2023-04-06T08:59:12.641Z,4.37
2023-04-06T09:01:46.934Z,3.97
2023-04-06T09:04:16.059Z,4.13
2023-04-06T09:06:45.874Z,4.33
2023-04-06T09:09:14.436Z,4.70
2023-04-06T09:11:51.154Z,4.50
2023-04-06T09:14:37.566Z,5.23
2023-04-06T09:17:07.233Z,5.30
2023-04-06T09:19:35.751Z,4.60
2023-04-06T09:22:06.038Z,4.77
2023-04-06T09:24:46.114Z,4.63
2023-04-06T09:27:15.192Z,4.67
2023-04-06T09:29:45.847Z,4.50
2023-04-06T09:32:17.872Z,4.63
2023-04-06T09:34:50.831Z,4.93
2023-04-06T09:37:21.573Z,4.73
2023-04-06T09:39:52.581Z,4.33
2023-04-06T09:42:27.599Z,4.67
2023-04-06T09:44:57.446Z,4.67
2023-04-06T09:47:29.271Z,4.43
2023-04-06T09:50:00.212Z,4.30
2023-04-06T09:52:34.282Z,4.43
2023-04-06T09:55:06.376Z,4.20
2023-04-06T09:57:40.241Z,4.23
2023-04-06T10:00:13.173Z,4.57
2023-04-06T10:02:52.881Z,3.87
2023-04-06T10:05:32.698Z,5.40
2023-04-06T10:08:08.469Z,5.07
2023-04-06T10:10:37.186Z,5.00
2023-04-06T10:13:07.303Z,5.13
2023-04-06T10:15:37.132Z,5.37
2023-04-06T10:18:08.544Z,4.97
2023-04-06T10:20:45.929Z,4.90
2023-04-06T10:23:22.115Z,4.90
2023-04-06T10:25:58.372Z,5.23
2023-04-06T10:28:28.373Z,5.10
2023-04-06T10:31:02.576Z,5.10
2023-04-06T10:33:31.505Z,5.10
2023-04-06T10:36:00.520Z,6.50
2023-04-06T10:38:41.776Z,5.83
2023-04-06T10:41:13.140Z,6.03
2023-04-06T10:43:43.591Z,5.63
2023-04-06T10:46:13.805Z,5.70
2023-04-06T10:48:44.854Z,6.13
2023-04-06T10:51:15.350Z,6.00
2023-04-06T10:53:45.508Z,6.00
2023-04-06T10:56:16.294Z,6.17
2023-04-06T10:58:48.677Z,6.07
2023-04-06T11:01:24.366Z,6.13
2023-04-06T11:03:54.871Z,6.40
2023-04-06T11:06:24.854Z,6.77
2023-04-06T11:08:54.334Z,5.63
2023-04-06T11:11:26.855Z,6.20
2023-04-06T11:13:57.536Z,6.07
2023-04-06T11:16:30.451Z,6.10
2023-04-06T11:19:00.750Z,6.33
2023-04-06T11:21:37.826Z,6.53
2023-04-06T11:24:10.840Z,5.83
2023-04-06T11:26:46.224Z,5.93
2023-04-06T11:29:15.920Z,6.10
2023-04-06T11:31:48.669Z,6.40
2023-04-06T11:34:20.103Z,6.10
2023-04-06T11:36:53.009Z,6.53
2023-04-06T11:39:24.784Z,6.17
2023-04-06T11:41:59.656Z,5.87
2023-04-06T11:44:36.586Z,6.70
2023-04-06T11:47:08.469Z,5.57
2023-04-06T11:49:40.733Z,6.07
2023-04-06T11:52:18.934Z,5.87
2023-04-06T11:54:48.374Z,6.30
2023-04-06T11:57:17.610Z,5.47
2023-04-06T11:59:46.337Z,7.60
2023-04-06T12:02:16.340Z,6.80
2023-04-06T12:04:44.914Z,8.27
2023-04-06T12:07:13.471Z,11.13
2023-04-06T12:09:41.953Z,7.47
2023-04-06T12:12:10.513Z,9.23
2023-04-06T12:14:38.984Z,6.80
2023-04-06T12:17:07.455Z,6.70
2023-04-06T12:19:37.281Z,6.00
2023-04-06T12:22:06.294Z,5.90
2023-04-06T12:24:34.830Z,5.80
2023-04-06T12:27:10.155Z,6.20
2023-04-06T12:29:39.466Z,6.30
2023-04-06T12:32:07.968Z,6.47
2023-04-06T12:34:37.840Z,6.10
2023-04-06T12:37:09.060Z,6.00
2023-04-06T12:39:37.530Z,5.70
2023-04-06T12:42:06.084Z,5.87
2023-04-06T12:44:34.653Z,5.90
2023-04-06T12:47:03.530Z,5.53
2023-04-06T12:49:32.769Z,5.37
2023-04-06T12:52:03.017Z,5.60
2023-04-06T12:54:31.499Z,5.60
2023-04-06T12:56:59.940Z,5.47
2023-04-06T12:59:29.175Z,5.77
2023-04-06T13:01:57.734Z,5.30
2023-04-06T13:04:27.367Z,5.87
2023-04-06T13:06:55.871Z,6.23
2023-04-06T13:09:25.854Z,6.10
2023-04-06T13:11:54.363Z,5.80
2023-04-06T13:14:22.883Z,5.50
2023-04-06T13:16:53.639Z,6.10
2023-04-06T13:19:22.715Z,6.03
2023-04-06T13:21:51.307Z,6.00
2023-04-06T13:24:20.560Z,6.13
2023-04-06T13:26:50.511Z,6.37
2023-04-06T13:29:19.029Z,5.30
2023-04-06T13:31:47.659Z,5.47
2023-04-06T13:34:16.352Z,5.63
2023-04-06T13:36:44.834Z,4.97
2023-04-06T13:39:13.352Z,5.50
2023-04-06T13:41:41.988Z,5.27
2023-04-06T13:44:11.943Z,4.90
2023-04-06T13:46:40.866Z,5.57
2023-04-06T13:49:09.437Z,5.73
2023-04-06T13:51:37.936Z,5.50
2023-04-06T13:54:07.003Z,6.10
2023-04-06T13:56:35.392Z,5.67
2023-04-06T13:59:05.595Z,6.07
2023-04-06T14:01:35.541Z,5.80
2023-04-06T14:04:04.125Z,5.77
2023-04-06T14:06:33.885Z,6.13
2023-04-06T14:09:02.366Z,6.17
2023-04-06T14:11:31.250Z,6.03
2023-04-06T14:13:59.647Z,6.53
2023-04-06T14:16:28.191Z,6.07
2023-04-06T14:18:58.964Z,6.17
2023-04-06T14:21:33.133Z,7.80
2023-04-06T14:24:02.793Z,7.30
2023-04-06T14:26:31.297Z,6.73
2023-04-06T14:29:01.082Z,6.57
2023-04-06T14:31:31.152Z,5.80
2023-04-06T14:34:03.422Z,7.23
2023-04-06T14:36:37.323Z,5.77
2023-04-06T14:39:06.875Z,6.00
2023-04-06T14:41:36.534Z,6.33
2023-04-06T14:44:05.970Z,5.73
2023-04-06T14:46:34.769Z,6.77
2023-04-06T14:49:04.716Z,6.47
2023-04-06T14:51:36.681Z,5.53
2023-04-06T14:54:05.667Z,5.77
2023-04-06T14:56:34.402Z,6.20
2023-04-06T14:59:04.256Z,6.87
2023-04-06T15:01:36.551Z,5.63
2023-04-06T15:04:07.838Z,6.00
2023-04-06T15:06:36.290Z,5.67
2023-04-06T15:09:04.843Z,5.67
2023-04-06T15:11:33.362Z,6.00
2023-04-06T15:14:03.297Z,5.87
2023-04-06T15:16:33.452Z,5.40
2023-04-06T15:19:02.442Z,5.73
2023-04-06T15:21:33.329Z,5.20
2023-04-06T15:24:01.698Z,5.40
2023-04-06T15:26:30.074Z,4.73
2023-04-06T15:28:58.565Z,5.43
2023-04-06T15:31:37.561Z,4.90
2023-04-06T15:34:09.040Z,4.90
2023-04-06T15:36:39.346Z,5.60
2023-04-06T15:39:09.968Z,5.40
2023-04-06T15:41:38.781Z,5.57
2023-04-06T15:44:07.354Z,5.33
2023-04-06T15:46:35.832Z,5.00
2023-04-06T15:49:04.570Z,5.37
2023-04-06T15:51:33.584Z,4.63
2023-04-06T15:54:03.522Z,5.47
2023-04-06T15:56:33.554Z,4.63
2023-04-06T15:59:03.968Z,4.90
2023-04-06T16:01:37.150Z,4.53
2023-04-06T16:04:11.348Z,5.30
2023-04-06T16:06:40.250Z,5.90
2023-04-06T16:09:10.034Z,6.93
2023-04-06T16:11:38.579Z,5.80
2023-04-06T16:14:07.202Z,4.63
2023-04-06T16:16:35.834Z,5.33
2023-04-06T16:19:04.319Z,4.53
2023-04-06T16:21:38.002Z,4.50
2023-04-06T16:24:06.989Z,7.93
2023-04-06T16:26:37.074Z,5.20
2023-04-06T16:29:05.636Z,4.70
2023-04-06T16:31:37.205Z,5.10
2023-04-06T16:34:05.747Z,4.90
2023-04-06T16:36:34.283Z,4.90
2023-04-06T16:39:03.524Z,5.10
2023-04-06T16:41:38.108Z,5.27
2023-04-06T16:44:06.763Z,4.77
2023-04-06T16:46:38.302Z,4.80
2023-04-06T16:49:07.368Z,4.80
2023-04-06T16:51:38.166Z,4.33
2023-04-06T16:54:06.851Z,4.90
2023-04-06T16:56:35.402Z,4.80
2023-04-06T16:59:08.175Z,5.40
2023-04-06T17:01:36.976Z,5.33
2023-04-06T17:04:05.706Z,6.40
2023-04-06T17:06:36.252Z,5.30
2023-04-06T17:09:04.923Z,6.03
2023-04-06T17:11:43.604Z,4.70
2023-04-06T17:14:16.210Z,4.43
2023-04-06T17:16:44.682Z,4.13
2023-04-06T17:19:13.157Z,4.37
2023-04-06T17:21:44.996Z,4.90
2023-04-06T17:24:13.389Z,4.70
2023-04-06T17:26:41.745Z,3.97
2023-04-06T17:29:10.182Z,4.20
2023-04-06T17:31:39.922Z,4.17
2023-04-06T17:34:08.313Z,3.70
2023-04-06T17:36:39.490Z,4.40
2023-04-06T17:39:08.330Z,4.67
2023-04-06T17:41:36.852Z,4.67
2023-04-06T17:44:05.557Z,5.37
2023-04-06T17:46:36.828Z,5.17
2023-04-06T17:49:08.462Z,7.03
2023-04-06T17:51:45.134Z,6.93
2023-04-06T17:54:13.720Z,6.23
2023-04-06T17:56:42.344Z,6.13
2023-04-06T17:59:11.627Z,6.90
2023-04-06T18:01:43.274Z,6.50
2023-04-06T18:04:13.180Z,6.60
2023-04-06T18:06:46.267Z,6.80
2023-04-06T18:09:15.017Z,6.20
2023-04-06T18:11:43.622Z,6.40
2023-04-06T18:14:13.533Z,6.27
2023-04-06T18:16:42.632Z,6.97
2023-04-06T18:19:12.400Z,7.20
2023-04-06T18:21:40.840Z,6.70
2023-04-06T18:24:12.313Z,7.00
2023-04-06T18:26:43.584Z,6.50
2023-04-06T18:29:11.938Z,6.40
2023-04-06T18:31:40.494Z,6.43
2023-04-06T18:34:08.852Z,6.37
2023-04-06T18:36:38.798Z,6.77
2023-04-06T18:39:07.194Z,6.60
2023-04-06T18:41:36.463Z,6.67
2023-04-06T18:44:05.136Z,11.23
2023-04-06T18:46:36.537Z,10.97
2023-04-06T18:49:05.530Z,7.93
2023-04-06T18:51:37.885Z,12.13
2023-04-06T18:54:07.721Z,10.30
2023-04-06T18:56:37.039Z,9.23
2023-04-06T18:59:05.697Z,9.00
2023-04-06T19:01:41.153Z,11.60
2023-04-06T19:04:11.344Z,11.83
2023-04-06T19:06:39.921Z,15.47
2023-04-06T19:09:09.811Z,18.27
2023-04-06T19:11:38.510Z,19.73
2023-04-06T19:14:07.102Z,19.37
2023-04-06T19:16:40.983Z,18.30
2023-04-06T19:19:09.790Z,17.23
2023-04-06T19:21:44.085Z,15.70
2023-04-06T19:24:14.054Z,9.87
2023-04-06T19:26:43.521Z,10.93
2023-04-06T19:29:12.344Z,9.03
2023-04-06T19:31:40.817Z,9.43
2023-04-06T19:34:09.424Z,9.20
2023-04-06T19:36:40.579Z,8.53
2023-04-06T19:39:08.874Z,7.17
2023-04-06T19:41:40.593Z,7.73
2023-04-06T19:44:08.943Z,7.07
2023-04-06T19:46:43.324Z,7.93
2023-04-06T19:49:11.700Z,8.13
2023-04-06T19:51:43.161Z,9.20
2023-04-06T19:54:11.539Z,9.57
2023-04-06T19:56:41.372Z,10.10
2023-04-06T19:59:11.069Z,8.77
2023-04-06T20:01:39.667Z,9.97
2023-04-06T20:04:08.382Z,10.63
2023-04-06T20:06:36.869Z,10.70
2023-04-06T20:09:05.462Z,10.43
2023-04-06T20:11:37.822Z,10.17
2023-04-06T20:14:07.588Z,9.57
2023-04-06T20:16:41.843Z,7.40
2023-04-06T20:19:10.320Z,7.67
2023-04-06T20:21:41.121Z,7.73
2023-04-06T20:24:10.909Z,7.60
2023-04-06T20:26:39.288Z,7.37
2023-04-06T20:29:09.095Z,6.70
2023-04-06T20:31:37.472Z,7.23
2023-04-06T20:34:06.293Z,6.17
2023-04-06T20:36:38.281Z,7.87
2023-04-06T20:39:07.066Z,6.57
2023-04-06T20:41:35.528Z,6.53
2023-04-06T20:44:05.089Z,6.70
2023-04-06T20:46:36.181Z,7.37
2023-04-06T20:49:05.018Z,7.20
2023-04-06T20:51:33.437Z,7.80
2023-04-06T20:54:02.136Z,8.13
2023-04-06T20:56:35.957Z,8.17
2023-04-06T20:59:05.190Z,7.30
2023-04-06T21:01:36.296Z,7.27
2023-04-06T21:04:04.860Z,7.83
2023-04-06T21:06:38.241Z,7.70
2023-04-06T21:09:06.664Z,8.40
2023-04-06T21:11:35.043Z,8.40
2023-04-06T21:14:03.407Z,8.63
2023-04-06T21:16:42.089Z,9.17
2023-04-06T21:19:10.419Z,8.80
2023-04-06T21:21:38.757Z,8.50
2023-04-06T21:24:07.778Z,9.43
2023-04-06T21:26:37.039Z,9.33
2023-04-06T21:29:05.621Z,8.70
2023-04-06T21:31:41.003Z,9.10
2023-04-06T21:34:13.173Z,8.27
2023-04-06T21:36:42.717Z,9.67
2023-04-06T21:39:11.589Z,9.17
2023-04-06T21:41:40.755Z,9.43
2023-04-06T21:44:09.098Z,9.57
2023-04-06T21:46:38.881Z,9.23
2023-04-06T21:49:07.278Z,9.07
2023-04-06T21:51:37.942Z,9.40
2023-04-06T21:54:06.566Z,10.30
2023-04-06T21:56:34.911Z,8.70
2023-04-06T21:59:03.238Z,8.03
2023-04-06T22:01:34.649Z,8.93
2023-04-06T22:04:04.426Z,8.57
2023-04-06T22:06:32.848Z,8.37
2023-04-06T22:09:02.001Z,8.10
2023-04-06T22:11:36.123Z,8.90
2023-04-06T22:14:06.160Z,8.90
2023-04-06T22:16:34.637Z,7.63
2023-04-06T22:19:04.491Z,7.87
2023-04-06T22:21:32.886Z,8.07
2023-04-06T22:24:01.307Z,8.20
2023-04-06T22:26:29.773Z,8.90
2023-04-06T22:28:58.511Z,7.47
2023-04-06T22:31:27.263Z,8.40
2023-04-06T22:33:55.746Z,8.03
2023-04-06T22:36:26.806Z,7.73
2023-04-06T22:38:55.081Z,7.47
2023-04-06T22:41:26.703Z,7.23
2023-04-06T22:43:55.132Z,7.53
2023-04-06T22:46:23.608Z,7.87
2023-04-06T22:48:51.949Z,7.90
2023-04-06T22:51:20.699Z,7.97
2023-04-06T22:53:50.442Z,7.07
2023-04-06T22:56:18.754Z,7.60
2023-04-06T22:58:47.316Z,8.23
2023-04-06T23:01:15.699Z,7.50
2023-04-06T23:03:52.402Z,8.60
2023-04-06T23:06:22.007Z,7.43
2023-04-06T23:08:51.752Z,9.13
2023-04-06T23:11:20.015Z,9.13
2023-04-06T23:13:48.337Z,8.00
2023-04-06T23:16:16.701Z,7.57
2023-04-06T23:18:45.520Z,8.13
2023-04-06T23:21:17.027Z,8.43
2023-04-06T23:23:45.350Z,7.80
2023-04-06T23:26:15.010Z,8.03
2023-04-06T23:28:43.553Z,8.47
2023-04-06T23:31:11.837Z,8.83
2023-04-06T23:33:40.091Z,8.23
2023-04-06T23:36:08.781Z,7.83
2023-04-06T23:38:37.400Z,7.80
2023-04-06T23:41:06.398Z,7.70
2023-04-06T23:43:36.094Z,8.43
2023-04-06T23:46:04.525Z,7.80
2023-04-06T23:48:35.886Z,8.00
2023-04-06T23:51:04.271Z,8.03
2023-04-06T23:53:32.831Z,8.23
2023-04-06T23:56:01.325Z,8.30
2023-04-06T23:58:29.731Z,8.17
